createdAt,value
2024-03-13T00:00:02.713Z,5.47
2024-03-13T00:02:39.269Z,6.27
2024-03-13T00:05:08.174Z,4.53
2024-03-13T00:07:35.145Z,4.97
2024-03-13T00:10:02.695Z,5.13
2024-03-13T00:12:30.187Z,4.97
2024-03-13T00:14:58.488Z,4.03
2024-03-13T00:17:25.566Z,4.17
2024-03-13T00:19:55.715Z,3.47
2024-03-13T00:22:23.789Z,3.23
2024-03-13T00:24:51.780Z,2.90
2024-03-13T00:27:19.402Z,3.03
2024-03-13T00:29:46.778Z,3.40
2024-03-13T00:32:19.077Z,3.03
2024-03-13T00:34:46.562Z,4.47
2024-03-13T00:37:14.837Z,3.83
2024-03-13T00:39:44.992Z,3.33
2024-03-13T00:42:15.065Z,2.63
2024-03-13T00:44:43.969Z,3.07
2024-03-13T00:47:12.564Z,2.63
2024-03-13T00:49:43.160Z,2.47
2024-03-13T00:52:10.091Z,3.13
2024-03-13T00:54:45.503Z,2.20
2024-03-13T00:57:12.906Z,2.63
2024-03-13T00:59:41.053Z,1.57
2024-03-13T01:02:10.669Z,2.17
2024-03-13T01:04:37.948Z,2.60
2024-03-13T01:07:09.362Z,1.63
2024-03-13T01:09:36.522Z,1.43
2024-03-13T01:12:06.910Z,1.33
2024-03-13T01:14:34.066Z,2.40
2024-03-13T01:17:03.920Z,1.97
2024-03-13T01:19:34.588Z,1.57
2024-03-13T01:22:07.258Z,1.23
2024-03-13T01:24:37.376Z,1.47
2024-03-13T01:27:05.131Z,2.43
2024-03-13T01:29:32.063Z,0.83
2024-03-13T01:31:59.636Z,1.63
2024-03-13T01:34:27.391Z,0.80
2024-03-13T01:37:13.196Z,2.00
2024-03-13T01:39:41.706Z,1.23
2024-03-13T01:42:27.352Z,1.17
2024-03-13T01:45:27.129Z,0.90
2024-03-13T01:48:14.646Z,2.03
2024-03-13T01:51:02.656Z,1.67
2024-03-13T01:53:48.272Z,0.70
2024-03-13T01:56:28.871Z,1.63
2024-03-13T01:59:22.004Z,1.00
2024-03-13T02:02:08.677Z,2.20
2024-03-13T02:04:36.482Z,1.27
2024-03-13T02:07:04.581Z,1.37
2024-03-13T02:09:31.923Z,1.97
2024-03-13T02:12:00.173Z,1.27
2024-03-13T02:14:29.453Z,2.53
2024-03-13T02:16:56.360Z,1.90
2024-03-13T02:19:25.826Z,2.07
2024-03-13T02:22:00.540Z,2.63
2024-03-13T02:24:27.924Z,1.30
2024-03-13T02:26:55.044Z,1.37
2024-03-13T02:29:22.038Z,1.70
2024-03-13T02:31:49.111Z,2.40
2024-03-13T02:34:16.350Z,1.10
2024-03-13T02:36:43.625Z,1.77
2024-03-13T02:39:10.681Z,0.93
2024-03-13T02:41:37.711Z,1.37
2024-03-13T02:44:04.827Z,1.57
2024-03-13T02:46:31.884Z,2.30
2024-03-13T02:48:58.959Z,1.47
2024-03-13T02:51:25.979Z,1.07
2024-03-13T02:53:52.975Z,2.43
2024-03-13T02:56:20.000Z,1.63
2024-03-13T02:58:49.216Z,1.27
2024-03-13T03:01:17.341Z,1.30
2024-03-13T03:03:44.505Z,1.53
2024-03-13T03:06:36.337Z,1.10
2024-03-13T03:09:04.887Z,0.80
2024-03-13T03:11:32.009Z,0.83
2024-03-13T03:13:59.184Z,0.70
2024-03-13T03:16:51.365Z,1.27
2024-03-13T03:19:24.571Z,1.17
2024-03-13T03:21:51.859Z,1.60
2024-03-13T03:24:18.916Z,1.63
2024-03-13T03:26:45.962Z,0.80
2024-03-13T03:29:12.998Z,0.87
2024-03-13T03:31:40.807Z,1.57
2024-03-13T03:34:07.889Z,1.30
2024-03-13T03:36:34.961Z,2.23
2024-03-13T03:39:02.037Z,1.63
2024-03-13T03:41:29.129Z,1.10
2024-03-13T03:43:56.127Z,1.10
2024-03-13T03:46:23.241Z,1.40
2024-03-13T03:48:50.365Z,1.90
2024-03-13T03:51:18.318Z,1.27
2024-03-13T03:53:45.946Z,1.63
2024-03-13T03:56:15.981Z,1.83
2024-03-13T03:58:44.032Z,1.23
2024-03-13T04:01:11.192Z,2.97
2024-03-13T04:03:38.238Z,2.07
2024-03-13T04:06:05.631Z,1.57
2024-03-13T04:08:32.655Z,1.50
2024-03-13T04:10:59.899Z,1.57
2024-03-13T04:13:26.988Z,1.10
2024-03-13T04:15:54.207Z,1.77
2024-03-13T04:18:21.672Z,1.73
2024-03-13T04:20:48.759Z,2.03
2024-03-13T04:23:17.654Z,1.87
2024-03-13T04:25:45.666Z,1.17
2024-03-13T04:28:13.061Z,1.10
2024-03-13T04:30:43.122Z,2.57
2024-03-13T04:33:10.184Z,1.30
2024-03-13T04:35:37.398Z,1.87
2024-03-13T04:38:05.475Z,2.73
2024-03-13T04:40:32.686Z,1.17
2024-03-13T04:43:01.252Z,3.30
2024-03-13T04:45:28.327Z,1.83
2024-03-13T04:47:55.371Z,3.17
2024-03-13T04:50:22.419Z,2.10
2024-03-13T04:52:49.637Z,2.90
2024-03-13T04:55:16.773Z,3.37
2024-03-13T04:57:43.783Z,3.73
2024-03-13T05:00:11.372Z,4.50
2024-03-13T05:02:40.873Z,3.60
2024-03-13T05:05:13.791Z,3.50
2024-03-13T05:07:40.929Z,2.17
2024-03-13T05:10:08.365Z,2.50
2024-03-13T05:12:37.995Z,2.27
2024-03-13T05:15:05.552Z,3.33
2024-03-13T05:17:32.715Z,2.17
2024-03-13T05:19:59.770Z,2.27
2024-03-13T05:22:30.576Z,2.57
2024-03-13T05:24:59.616Z,3.93
2024-03-13T05:27:26.753Z,3.57
2024-03-13T05:29:53.844Z,2.80
2024-03-13T05:32:21.926Z,3.97
2024-03-13T05:34:48.991Z,5.10
2024-03-13T05:37:16.024Z,3.43
2024-03-13T05:39:43.127Z,4.27
2024-03-13T05:42:12.066Z,3.90
2024-03-13T05:44:40.718Z,4.00
2024-03-13T05:47:07.789Z,3.97
2024-03-13T05:49:35.191Z,4.10
2024-03-13T05:52:02.434Z,4.10
2024-03-13T05:54:30.027Z,5.07
2024-03-13T05:56:57.428Z,4.83
2024-03-13T05:59:24.432Z,5.10
2024-03-13T06:01:51.571Z,4.80
2024-03-13T06:04:21.635Z,6.30
2024-03-13T06:06:53.352Z,5.03
2024-03-13T06:09:21.107Z,5.47
2024-03-13T06:11:48.118Z,6.03
2024-03-13T06:14:15.232Z,7.30
2024-03-13T06:16:42.580Z,6.43
2024-03-13T06:19:09.594Z,6.17
2024-03-13T06:21:36.625Z,5.07
2024-03-13T06:24:06.305Z,5.70
2024-03-13T06:26:34.807Z,6.73
2024-03-13T06:29:20.564Z,5.83
2024-03-13T06:31:47.546Z,6.27
2024-03-13T06:34:14.596Z,7.17
2024-03-13T06:36:41.643Z,5.93
2024-03-13T06:39:08.692Z,7.40
2024-03-13T06:41:35.722Z,6.97
2024-03-13T06:44:06.659Z,8.20
2024-03-13T06:46:34.532Z,6.73
2024-03-13T06:49:01.752Z,6.73
2024-03-13T06:51:29.020Z,7.67
2024-03-13T06:53:56.313Z,6.47
2024-03-13T06:56:23.600Z,7.67
2024-03-13T06:58:51.537Z,7.23
2024-03-13T07:01:19.846Z,9.67
2024-03-13T07:03:47.029Z,7.60
2024-03-13T07:06:15.852Z,7.73
2024-03-13T07:08:42.931Z,8.00
2024-03-13T07:11:10.069Z,7.87
2024-03-13T07:13:37.231Z,10.63
2024-03-13T07:16:04.577Z,8.23
2024-03-13T07:18:33.052Z,7.70
2024-03-13T07:21:00.097Z,7.93
2024-03-13T07:23:28.074Z,7.37
2024-03-13T07:25:56.261Z,6.37
2024-03-13T07:28:23.433Z,5.37
2024-03-13T07:30:50.533Z,5.70
2024-03-13T07:33:17.958Z,5.20
2024-03-13T07:35:45.425Z,5.27
2024-03-13T07:38:12.500Z,7.17
2024-03-13T07:40:40.844Z,6.47
2024-03-13T07:43:09.981Z,5.90
2024-03-13T07:45:38.200Z,5.23
2024-03-13T07:48:11.794Z,4.67
2024-03-13T07:50:40.183Z,4.47
2024-03-13T07:53:07.322Z,5.00
2024-03-13T07:55:35.288Z,4.67
2024-03-13T07:58:04.105Z,4.63
2024-03-13T08:00:32.082Z,3.10
2024-03-13T08:02:59.228Z,1.93
2024-03-13T08:05:26.347Z,1.77
2024-03-13T09:05:55.694Z,2.40
2024-03-13T09:08:36.222Z,1.30
2024-03-13T09:11:14.019Z,2.00
2024-03-13T09:13:43.189Z,2.00
2024-03-13T09:16:12.665Z,3.00
2024-03-13T09:18:40.374Z,3.33
2024-03-13T09:21:07.592Z,2.10
2024-03-13T09:23:34.825Z,2.30
2024-03-13T09:26:01.922Z,1.77
2024-03-13T09:28:29.184Z,3.27
2024-03-13T09:30:56.282Z,1.50
2024-03-13T09:33:23.495Z,0.60
2024-03-13T09:35:50.717Z,1.00
2024-03-13T09:38:18.757Z,1.30
2024-03-13T09:40:46.990Z,1.13
2024-03-13T09:43:16.503Z,1.73
2024-03-13T09:45:47.907Z,0.73
2024-03-13T09:48:15.346Z,0.70
2024-03-13T09:50:49.399Z,1.10
2024-03-13T09:53:20.705Z,1.20
2024-03-13T09:55:48.843Z,1.33
2024-03-13T09:58:16.610Z,0.70
2024-03-13T10:00:44.713Z,2.20
2024-03-13T10:03:18.060Z,0.50
2024-03-13T10:05:45.372Z,1.17
2024-03-13T10:08:12.485Z,0.97
2024-03-13T10:10:41.959Z,1.10
2024-03-13T10:13:09.851Z,0.60
2024-03-13T10:15:37.590Z,0.97
2024-03-13T10:18:10.165Z,0.60
2024-03-13T10:20:39.368Z,1.37
2024-03-13T10:23:06.523Z,1.60
2024-03-13T10:25:36.650Z,0.60
2024-03-13T10:28:04.459Z,0.60
2024-03-13T10:30:31.519Z,0.67
2024-03-13T10:32:58.779Z,1.00
2024-03-13T10:35:27.579Z,1.10
2024-03-13T10:37:54.688Z,1.60
2024-03-13T10:40:25.836Z,1.00
2024-03-13T10:42:53.699Z,1.20
2024-03-13T10:45:20.955Z,1.37
2024-03-13T10:47:49.881Z,0.90
2024-03-13T10:50:17.072Z,1.07
2024-03-13T10:52:45.517Z,1.43
2024-03-13T10:55:13.579Z,1.20
2024-03-13T10:57:41.084Z,1.10
2024-03-13T11:00:13.099Z,1.00
2024-03-13T11:02:40.441Z,1.10
2024-03-13T11:05:08.179Z,2.30
2024-03-13T11:07:35.275Z,2.77
2024-03-13T11:10:02.418Z,1.10
2024-03-13T11:12:32.707Z,1.17
2024-03-13T11:14:59.985Z,1.37
2024-03-13T11:17:27.272Z,1.17
2024-03-13T11:19:54.802Z,1.00
2024-03-13T11:22:21.937Z,1.03
2024-03-13T11:24:49.291Z,1.07
2024-03-13T11:27:16.850Z,1.23
2024-03-13T11:29:47.098Z,2.03
2024-03-13T11:32:14.340Z,1.43
2024-03-13T11:34:41.813Z,1.33
2024-03-13T11:37:11.166Z,1.53
2024-03-13T11:39:38.780Z,2.17
2024-03-13T11:42:12.470Z,3.43
2024-03-13T11:44:43.327Z,1.77
2024-03-13T11:47:12.367Z,2.53
2024-03-13T11:49:41.351Z,2.30
2024-03-13T11:52:11.857Z,2.73
2024-03-13T11:54:40.587Z,2.50
2024-03-13T11:57:08.016Z,1.80
2024-03-13T11:59:44.813Z,1.77
2024-03-13T12:02:42.150Z,2.43
2024-03-13T12:05:11.564Z,2.07
2024-03-13T12:07:41.901Z,2.23
2024-03-13T12:10:12.162Z,1.30
2024-03-13T12:12:40.562Z,1.17
2024-03-13T12:15:09.325Z,1.10
2024-03-13T12:17:36.512Z,1.10
2024-03-13T12:20:04.659Z,1.23
2024-03-13T12:22:31.871Z,1.57
2024-03-13T12:24:58.917Z,1.17
2024-03-13T12:27:26.229Z,0.80
2024-03-13T12:29:54.870Z,0.90
2024-03-13T12:32:22.537Z,1.13
2024-03-13T12:34:49.598Z,0.83
2024-03-13T12:37:17.207Z,0.90
2024-03-13T12:39:45.564Z,0.70
2024-03-13T12:42:14.585Z,0.50
2024-03-13T12:44:42.179Z,0.50
2024-03-13T12:47:13.709Z,0.60
2024-03-13T12:49:42.192Z,0.97
2024-03-13T12:52:10.736Z,2.20
2024-03-13T12:54:38.408Z,0.50
2024-03-13T12:57:05.704Z,1.53
2024-03-13T12:59:32.689Z,0.40
2024-03-13T13:01:59.792Z,1.57
2024-03-13T13:04:26.989Z,1.00
2024-03-13T13:06:54.107Z,1.10
2024-03-13T13:09:23.552Z,0.50
2024-03-13T13:11:50.772Z,1.10
2024-03-13T13:14:17.915Z,0.83
2024-03-13T13:16:45.037Z,0.60
2024-03-13T13:19:12.486Z,1.07
2024-03-13T13:21:39.601Z,0.77
2024-03-13T13:24:07.267Z,0.97
2024-03-13T13:26:34.460Z,1.27
2024-03-13T13:31:32.238Z,0.77
2024-03-13T13:33:59.451Z,0.53
2024-03-13T13:36:26.604Z,0.93
2024-03-13T13:38:53.693Z,0.30
2024-03-13T13:41:21.685Z,0.30
2024-03-13T13:43:48.824Z,0.97
2024-03-13T13:46:16.475Z,1.10
2024-03-13T13:48:43.718Z,1.27
2024-03-13T13:51:11.643Z,1.00
2024-03-13T13:53:38.871Z,0.87
2024-03-13T13:56:06.253Z,0.80
2024-03-13T13:58:33.271Z,0.90
2024-03-13T14:01:01.185Z,0.73
2024-03-13T14:03:29.003Z,0.67
2024-03-13T14:05:56.405Z,0.97
2024-03-13T14:08:23.511Z,0.60
2024-03-13T14:10:58.236Z,0.70
2024-03-13T14:13:27.328Z,1.47
2024-03-13T14:15:54.366Z,1.70
2024-03-13T14:18:21.822Z,0.90
2024-03-13T14:20:49.045Z,1.40
2024-03-13T14:23:16.143Z,1.70
2024-03-13T14:25:43.284Z,1.00
2024-03-13T14:28:11.994Z,1.07
2024-03-13T14:30:39.147Z,1.23
2024-03-13T14:33:07.487Z,1.50
2024-03-13T14:35:34.647Z,0.90
2024-03-13T14:38:01.747Z,0.90
2024-03-13T14:40:30.569Z,1.70
2024-03-13T14:42:57.693Z,2.57
2024-03-13T14:45:24.897Z,1.83
2024-03-13T14:47:52.652Z,1.57
2024-03-13T14:50:21.449Z,1.30
2024-03-13T14:52:58.895Z,1.57
2024-03-13T14:55:30.715Z,2.00
2024-03-13T14:57:58.465Z,1.37
2024-03-13T15:00:27.074Z,1.50
2024-03-13T15:02:54.516Z,0.80
2024-03-13T15:05:23.891Z,0.83
2024-03-13T15:07:50.903Z,0.97
2024-03-13T15:10:23.435Z,1.00
2024-03-13T15:12:50.551Z,2.07
2024-03-13T15:15:17.749Z,2.03
2024-03-13T15:17:46.422Z,2.93
2024-03-13T15:20:14.508Z,1.43
2024-03-13T15:22:41.795Z,2.37
2024-03-13T15:25:10.929Z,3.07
2024-03-13T15:27:39.961Z,2.83
2024-03-13T15:30:07.907Z,2.00
2024-03-13T15:32:35.844Z,2.17
2024-03-13T15:35:09.042Z,3.40
2024-03-13T15:37:36.186Z,1.70
2024-03-13T15:40:12.066Z,3.17
2024-03-13T15:42:41.072Z,2.27
2024-03-13T15:45:09.377Z,2.30
2024-03-13T15:47:38.736Z,2.23
2024-03-13T15:50:10.557Z,2.93
2024-03-13T15:52:41.232Z,4.93
2024-03-13T15:55:08.805Z,2.37
2024-03-13T15:57:36.374Z,2.30
2024-03-13T16:00:10.536Z,3.67
2024-03-13T16:02:38.085Z,2.80
2024-03-13T16:05:07.329Z,2.00
2024-03-13T16:07:34.742Z,2.80
2024-03-13T16:10:01.778Z,3.73
2024-03-13T16:12:28.856Z,4.67
2024-03-13T16:14:55.988Z,3.37
2024-03-13T16:17:23.825Z,3.73
2024-03-13T16:19:50.902Z,3.30
2024-03-13T16:22:19.041Z,2.77
2024-03-13T16:24:46.962Z,4.33
2024-03-13T16:27:14.170Z,5.10
2024-03-13T16:29:42.551Z,2.97
2024-03-13T16:32:09.655Z,4.43
2024-03-13T16:34:37.072Z,3.27
2024-03-13T16:37:04.108Z,5.30
2024-03-13T16:39:31.179Z,3.63
2024-03-13T16:41:58.852Z,3.70
2024-03-13T16:44:25.901Z,3.43
2024-03-13T16:46:52.957Z,3.00
2024-03-13T16:49:20.005Z,2.67
2024-03-13T16:51:47.068Z,3.10
2024-03-13T16:54:14.689Z,1.93
2024-03-13T16:56:41.814Z,3.23
2024-03-13T16:59:09.348Z,3.00
2024-03-13T17:01:38.210Z,2.13
2024-03-13T17:04:05.283Z,3.93
2024-03-13T17:06:32.359Z,3.10
2024-03-13T17:08:59.510Z,3.43
2024-03-13T17:11:26.734Z,2.17
2024-03-13T17:13:56.460Z,2.80
2024-03-13T17:16:23.615Z,2.27
2024-03-13T17:18:50.777Z,3.73
2024-03-13T17:21:17.867Z,2.10
2024-03-13T17:23:45.592Z,3.10
2024-03-13T17:26:12.761Z,2.27
2024-03-13T17:28:39.841Z,3.67
2024-03-13T17:31:10.372Z,3.40
2024-03-13T17:33:37.723Z,3.60
2024-03-13T17:36:05.172Z,5.67
2024-03-13T17:38:32.315Z,4.67
2024-03-13T17:40:59.506Z,6.57
2024-03-13T17:43:28.096Z,13.73
2024-03-13T17:45:55.515Z,21.27
2024-03-13T17:48:22.702Z,18.43
2024-03-13T17:50:51.739Z,14.23
2024-03-13T17:53:18.844Z,12.43
2024-03-13T17:55:45.906Z,8.30
2024-03-13T17:58:12.929Z,10.57
2024-03-13T18:00:40.181Z,11.23
2024-03-13T18:03:08.097Z,4.80
2024-03-13T18:05:35.154Z,4.87
2024-03-13T18:08:02.271Z,5.20
2024-03-13T18:12:57.514Z,4.43
2024-03-13T18:15:24.576Z,4.13
2024-03-13T18:17:52.172Z,4.53
2024-03-13T18:20:19.381Z,4.57
2024-03-13T18:22:46.498Z,4.17
2024-03-13T18:25:14.342Z,4.93
2024-03-13T18:27:41.381Z,5.03
2024-03-13T18:30:14.492Z,3.43
2024-03-13T18:32:44.884Z,4.17
2024-03-13T18:35:14.131Z,5.70
2024-03-13T18:37:41.192Z,5.03
2024-03-13T18:40:13.755Z,4.53
2024-03-13T18:42:41.144Z,8.37
2024-03-13T18:45:11.978Z,7.23
2024-03-13T18:47:39.576Z,8.20
2024-03-13T18:50:10.045Z,7.17
2024-03-13T18:52:48.183Z,7.67
2024-03-13T18:55:16.346Z,8.03
2024-03-13T18:57:43.824Z,5.80
2024-03-13T19:00:14.367Z,7.27
2024-03-13T19:02:41.688Z,6.70
2024-03-13T19:05:14.972Z,7.47
2024-03-13T19:07:50.229Z,6.80
2024-03-13T19:10:23.548Z,7.10
2024-03-13T19:12:56.502Z,5.10
2024-03-13T19:15:23.891Z,5.27
2024-03-13T19:17:51.104Z,6.30
2024-03-13T19:20:18.514Z,9.27
2024-03-13T19:22:46.813Z,6.43
2024-03-13T19:25:14.344Z,8.10
2024-03-13T19:27:41.454Z,5.20
2024-03-13T19:30:08.824Z,6.17
2024-03-13T19:32:36.175Z,6.27
2024-03-13T19:35:03.685Z,6.27
2024-03-13T19:37:30.782Z,5.47
2024-03-13T19:39:59.454Z,5.93
2024-03-13T19:42:26.612Z,5.50
2024-03-13T19:44:56.095Z,5.20
2024-03-13T19:47:23.308Z,6.30
2024-03-13T19:49:50.820Z,6.00
2024-03-13T19:52:17.849Z,5.70
2024-03-13T19:54:44.868Z,8.70
2024-03-13T19:57:12.942Z,8.00
2024-03-13T19:59:41.261Z,13.40
2024-03-13T20:02:08.373Z,11.10
2024-03-13T20:04:35.958Z,8.63
2024-03-13T20:07:03.387Z,8.57
2024-03-13T20:09:30.478Z,7.30
2024-03-13T20:11:57.692Z,6.53
2024-03-13T20:14:24.780Z,4.23
2024-03-13T20:16:51.829Z,3.97
2024-03-13T20:19:19.105Z,5.73
2024-03-13T20:21:47.672Z,5.17
2024-03-13T20:24:14.780Z,5.77
2024-03-13T20:26:42.497Z,7.73
2024-03-13T20:29:09.695Z,8.53
2024-03-13T20:31:37.573Z,9.17
2024-03-13T20:34:05.002Z,8.67
2024-03-13T20:36:37.031Z,8.53
2024-03-13T20:39:05.489Z,7.63
2024-03-13T20:41:32.595Z,7.17
2024-03-13T20:43:59.581Z,6.00
2024-03-13T20:46:26.722Z,6.53
2024-03-13T20:48:54.180Z,6.33
2024-03-13T20:51:21.497Z,6.40
2024-03-13T20:53:48.612Z,8.47
2024-03-13T20:56:16.265Z,6.67
2024-03-13T20:58:47.765Z,5.63
2024-03-13T21:01:14.886Z,5.70
2024-03-13T21:03:42.030Z,6.80
2024-03-13T21:06:09.150Z,6.80
2024-03-13T21:08:36.270Z,6.93
2024-03-13T21:11:04.124Z,6.03
2024-03-13T21:13:31.221Z,5.60
2024-03-13T21:16:03.735Z,5.70
2024-03-13T21:18:39.501Z,6.47
2024-03-13T21:21:07.506Z,6.50
2024-03-13T21:23:34.807Z,5.97
2024-03-13T21:26:03.256Z,4.80
2024-03-13T21:28:30.290Z,4.40
2024-03-13T21:30:57.289Z,6.27
2024-03-13T21:33:24.425Z,6.30
2024-03-13T21:35:51.515Z,5.53
2024-03-13T21:38:18.580Z,7.67
2024-03-13T21:40:45.632Z,6.97
2024-03-13T21:43:12.706Z,5.27
2024-03-13T21:45:39.766Z,5.50
2024-03-13T21:48:08.579Z,6.23
2024-03-13T21:50:39.596Z,6.13
2024-03-13T21:53:06.890Z,5.23
2024-03-13T21:55:34.539Z,5.67
2024-03-13T21:58:01.912Z,5.07
2024-03-13T22:00:29.433Z,6.57
2024-03-13T22:02:56.567Z,7.30
2024-03-13T22:05:23.636Z,5.57
2024-03-13T22:07:50.956Z,5.23
2024-03-13T22:10:17.992Z,5.43
2024-03-13T22:12:45.493Z,6.40
2024-03-13T22:15:15.903Z,5.33
2024-03-13T22:17:43.507Z,6.13
2024-03-13T22:20:11.050Z,5.63
2024-03-13T22:22:38.092Z,5.93
2024-03-13T22:25:05.383Z,6.63
2024-03-13T22:27:32.492Z,6.20
2024-03-13T22:29:59.700Z,6.63
2024-03-13T22:32:30.017Z,5.17
2024-03-13T22:34:57.125Z,5.30
2024-03-13T22:37:24.147Z,6.43
2024-03-13T22:39:51.160Z,5.93
2024-03-13T22:42:18.626Z,5.13
2024-03-13T22:44:45.686Z,5.77
2024-03-13T22:47:12.769Z,6.07
2024-03-13T22:49:39.829Z,4.67
2024-03-13T22:52:06.866Z,5.50
2024-03-13T22:54:34.046Z,5.70
2024-03-13T22:57:01.233Z,6.60
2024-03-13T22:59:28.348Z,6.37
2024-03-13T23:01:55.355Z,7.80
2024-03-13T23:04:22.477Z,8.37
2024-03-13T23:06:49.504Z,6.60
2024-03-13T23:09:16.754Z,6.77
2024-03-13T23:11:43.899Z,6.23
2024-03-13T23:14:11.976Z,7.30
2024-03-13T23:16:39.026Z,6.87
2024-03-13T23:19:06.104Z,7.63
2024-03-13T23:21:33.735Z,7.03
2024-03-13T23:24:00.921Z,7.57
2024-03-13T23:26:27.980Z,7.70
2024-03-13T23:28:55.019Z,8.90
2024-03-13T23:31:22.018Z,7.27
2024-03-13T23:33:49.132Z,7.97
2024-03-13T23:36:16.439Z,7.10
2024-03-13T23:38:43.665Z,7.20
2024-03-13T23:41:11.455Z,7.97
2024-03-13T23:43:38.531Z,7.03
2024-03-13T23:46:06.357Z,6.70
2024-03-13T23:48:34.638Z,7.60
2024-03-13T23:51:04.767Z,8.93
2024-03-13T23:53:31.895Z,6.13
2024-03-13T23:55:58.908Z,8.13
2024-03-13T23:58:25.958Z,7.30
